Time;durP1;ratioP1;P1;durP2;ratioP2;P2;SDS_P1;SDS_P2;PMS_P1;PMS_P2;Temp;Humidity;BMP_temperature;BMP_pressure;BME280_temperature;BME280_humidity;BME280_pressure;Samples;Min_cycle;Max_cycle;Signal;HPM_P1;HPM_P2
2022/07/13 00:00:45;;;;;;;6.27;1.80;;;13.90;99.90;;;;;;5064906;28;20231;-78
2022/07/13 00:03:13;;;;;;;2.80;1.70;;;13.90;99.90;;;;;;5051933;28;20251;-79
2022/07/13 00:05:43;;;;;;;2.03;1.83;;;13.90;99.90;;;;;;5054129;28;20735;-78
2022/07/13 00:08:11;;;;;;;4.20;2.03;;;13.90;99.90;;;;;;5071566;28;20211;-77
2022/07/13 00:10:39;;;;;;;3.03;1.77;;;13.80;99.90;;;;;;5067039;28;20307;-77
2022/07/13 00:13:07;;;;;;;4.53;1.90;;;13.80;99.90;;;;;;5052999;28;20215;-75
2022/07/13 00:15:36;;;;;;;2.47;1.73;;;13.80;99.90;;;;;;5051898;28;20218;-76
2022/07/13 00:18:04;;;;;;;4.33;2.00;;;13.80;99.90;;;;;;5053224;28;20708;-75
2022/07/13 00:20:32;;;;;;;5.20;2.10;;;13.70;99.90;;;;;;5051860;28;20236;-78
2022/07/13 00:23:03;;;;;;;2.87;1.83;;;13.70;99.90;;;;;;5051179;28;20733;-80
2022/07/13 00:25:31;;;;;;;3.47;2.10;;;13.70;99.90;;;;;;5051989;28;20232;-79
2022/07/13 00:27:59;;;;;;;3.33;1.60;;;13.70;99.90;;;;;;5051511;28;20630;-79
2022/07/13 00:30:27;;;;;;;2.43;1.93;;;13.70;99.90;;;;;;5051070;28;20204;-78
2022/07/13 00:32:55;;;;;;;3.47;2.30;;;13.70;99.90;;;;;;5051923;28;20200;-78
2022/07/13 00:35:24;;;;;;;1.93;1.83;;;13.70;99.90;;;;;;5052093;28;20291;-77
2022/07/13 00:37:52;;;;;;;3.80;2.00;;;13.70;99.90;;;;;;5051294;28;20294;-78
2022/07/13 00:40:22;;;;;;;3.47;2.30;;;13.60;99.90;;;;;;5051084;28;20295;-78
2022/07/13 00:42:50;;;;;;;4.43;2.30;;;13.70;99.90;;;;;;5051299;28;20732;-79
2022/07/13 00:45:19;;;;;;;4.20;2.23;;;13.70;99.90;;;;;;5052851;28;20258;-78
2022/07/13 00:47:49;;;;;;;2.17;1.90;;;13.70;99.90;;;;;;5055234;28;20247;-80
2022/07/13 00:50:17;;;;;;;4.00;2.03;;;13.70;99.90;;;;;;5055023;28;20295;-79
2022/07/13 00:52:48;;;;;;;2.57;2.10;;;13.60;99.90;;;;;;5054907;28;20292;-79
2022/07/13 00:55:17;;;;;;;2.60;2.00;;;13.60;99.90;;;;;;5055604;28;20251;-77
2022/07/13 00:57:46;;;;;;;3.70;2.20;;;13.60;99.90;;;;;;5057249;28;20302;-77
2022/07/13 01:00:16;;;;;;;4.07;2.20;;;13.50;99.90;;;;;;5056028;28;20212;-77
2022/07/13 01:02:46;;;;;;;2.77;2.20;;;13.50;99.90;;;;;;5062887;28;20239;-78
2022/07/13 01:05:15;;;;;;;2.40;2.20;;;13.40;99.90;;;;;;5061353;28;20299;-79
2022/07/13 01:07:45;;;;;;;3.07;2.20;;;13.40;99.90;;;;;;5056782;28;20243;-78
2022/07/13 01:10:14;;;;;;;2.40;2.20;;;13.40;99.90;;;;;;5056554;28;20231;-79
2022/07/13 01:12:42;;;;;;;3.87;2.03;;;13.40;99.90;;;;;;5054919;28;20200;-79
2022/07/13 01:15:12;;;;;;;3.53;2.20;;;13.40;99.90;;;;;;5054112;28;20635;-80
2022/07/13 01:17:41;;;;;;;3.57;2.20;;;13.40;99.90;;;;;;5054278;28;20239;-80
2022/07/13 01:20:10;;;;;;;3.10;2.10;;;13.30;99.90;;;;;;5061771;28;20748;-78
2022/07/13 01:22:43;;;;;;;3.23;2.13;;;13.30;99.90;;;;;;5074286;28;20263;-77
2022/07/13 01:25:14;;;;;;;3.37;2.07;;;13.30;99.90;;;;;;5070370;28;20283;-77
2022/07/13 01:27:43;;;;;;;4.57;2.10;;;13.30;99.90;;;;;;5054649;28;20304;-74
2022/07/13 01:30:12;;;;;;;2.37;1.93;;;13.20;99.90;;;;;;5053921;28;20208;-75
2022/07/13 01:32:47;;;;;;;2.10;2.00;;;13.10;99.90;;;;;;5054076;28;20283;-74
2022/07/13 01:35:16;;;;;;;4.83;2.13;;;13.10;99.90;;;;;;5054906;28;20278;-73
2022/07/13 01:37:45;;;;;;;2.10;1.90;;;13.10;99.90;;;;;;5054315;28;20243;-75
2022/07/13 01:40:15;;;;;;;2.37;2.10;;;13.00;99.90;;;;;;5053993;28;20295;-76
2022/07/13 01:42:45;;;;;;;4.20;2.00;;;13.00;99.90;;;;;;5053745;28;20324;-74
2022/07/13 01:45:14;;;;;;;2.80;2.17;;;13.00;99.90;;;;;;5057200;28;20239;-79
2022/07/13 01:47:44;;;;;;;2.67;2.20;;;12.90;99.90;;;;;;5063300;28;20204;-77
2022/07/13 01:50:14;;;;;;;3.80;2.13;;;12.90;99.90;;;;;;5073665;28;20208;-78
2022/07/13 01:52:43;;;;;;;4.40;2.10;;;12.90;99.90;;;;;;5073931;28;20299;-79
2022/07/13 01:55:12;;;;;;;2.87;2.20;;;12.80;99.90;;;;;;5073184;28;20604;-80
2022/07/13 01:57:42;;;;;;;4.40;2.20;;;12.80;99.90;;;;;;5073417;28;20211;-80
2022/07/13 02:00:14;;;;;;;2.93;2.03;;;12.70;99.90;;;;;;5073819;28;20718;-78
2022/07/13 02:02:43;;;;;;;2.00;1.90;;;12.70;99.90;;;;;;5073694;28;20228;-77
2022/07/13 02:05:12;;;;;;;3.90;1.90;;;12.70;99.90;;;;;;5073628;28;20215;-76
2022/07/13 02:07:41;;;;;;;2.50;2.30;;;12.70;99.90;;;;;;5073550;28;20211;-77
2022/07/13 02:10:11;;;;;;;2.80;2.13;;;12.70;99.90;;;;;;5073247;28;20318;-78
2022/07/13 02:12:39;;;;;;;2.10;1.90;;;12.60;99.90;;;;;;5073490;28;20229;-78
2022/07/13 02:15:11;;;;;;;2.77;2.00;;;12.60;99.90;;;;;;5073003;28;20257;-78
2022/07/13 02:17:39;;;;;;;2.03;1.87;;;12.60;99.90;;;;;;5073173;28;20196;-78
2022/07/13 02:20:09;;;;;;;1.70;1.60;;;12.60;99.90;;;;;;5067404;28;20229;-77
2022/07/13 02:22:43;;;;;;;3.67;2.20;;;12.50;99.90;;;;;;5073289;28;20314;-80
2022/07/13 02:25:12;;;;;;;3.90;2.20;;;12.50;99.90;;;;;;5069067;28;20716;-79
2022/07/13 02:27:41;;;;;;;3.90;2.30;;;12.50;99.90;;;;;;5065811;28;20219;-78
2022/07/13 02:30:12;;;;;;;3.23;2.20;;;12.40;99.90;;;;;;5072518;28;20303;-78
2022/07/13 02:32:42;;;;;;;2.97;2.00;;;12.40;99.90;;;;;;5073252;28;20252;-79
2022/07/13 02:35:10;;;;;;;3.43;2.13;;;12.40;99.90;;;;;;5072838;28;20302;-81
2022/07/13 02:37:39;;;;;;;2.10;1.90;;;12.40;99.90;;;;;;5054039;28;20287;-77
2022/07/13 02:40:10;;;;;;;2.50;2.13;;;12.40;99.90;;;;;;5052456;28;20212;-80
2022/07/13 02:42:46;;;;;;;2.50;2.10;;;12.30;99.90;;;;;;5052709;28;20238;-79
2022/07/13 02:45:15;;;;;;;2.27;1.80;;;12.30;99.90;;;;;;5056398;28;20295;-79
2022/07/13 02:47:44;;;;;;;4.80;2.23;;;12.30;99.90;;;;;;5070134;28;20257;-77
2022/07/13 02:50:12;;;;;;;7.97;2.33;;;12.40;99.90;;;;;;5072222;28;20243;-77
2022/07/13 02:52:41;;;;;;;3.20;2.20;;;12.30;99.90;;;;;;5072182;28;20216;-78
2022/07/13 02:55:10;;;;;;;2.43;1.97;;;12.30;99.90;;;;;;5072048;28;20211;-77
2022/07/13 02:57:38;;;;;;;4.63;2.20;;;12.30;99.90;;;;;;5053170;28;20291;-77
2022/07/13 03:00:08;;;;;;;3.33;2.13;;;12.30;99.90;;;;;;5052255;28;20250;-79
2022/07/13 03:02:37;;;;;;;3.40;2.10;;;12.30;99.90;;;;;;5052136;28;20719;-78
2022/07/13 03:05:07;;;;;;;2.63;2.20;;;12.30;99.90;;;;;;5052173;28;20234;-77
2022/07/13 03:07:36;;;;;;;2.80;2.17;;;12.30;99.90;;;;;;5069214;28;20207;-80
2022/07/13 03:10:04;;;;;;;2.20;2.00;;;12.30;99.90;;;;;;5071286;28;20232;-79
2022/07/13 03:12:33;;;;;;;4.20;1.90;;;12.30;99.90;;;;;;5072283;28;20294;-77
2022/07/13 03:15:01;;;;;;;4.37;2.20;;;12.20;99.90;;;;;;5072139;28;20208;-79
2022/07/13 03:17:29;;;;;;;2.27;1.90;;;12.20;99.90;;;;;;5056683;28;20291;-78
2022/07/13 03:19:58;;;;;;;3.40;2.03;;;12.20;99.90;;;;;;5051526;28;20765;-77
2022/07/13 03:22:29;;;;;;;2.53;2.00;;;12.20;99.90;;;;;;5051757;28;20769;-76
2022/07/13 03:24:57;;;;;;;2.20;1.90;;;12.20;99.90;;;;;;5051851;28;20215;-78
2022/07/13 03:27:29;;;;;;;2.00;1.90;;;12.10;99.90;;;;;;5052040;28;20287;-75
2022/07/13 03:29:57;;;;;;;5.10;2.20;;;12.10;99.90;;;;;;5051411;28;20298;-73
2022/07/13 03:32:25;;;;;;;4.57;2.33;;;12.10;99.90;;;;;;5051759;28;20303;-80
2022/07/13 03:34:53;;;;;;;3.07;2.27;;;12.10;99.90;;;;;;5052009;28;20287;-79
2022/07/13 03:37:23;;;;;;;5.13;2.03;;;12.10;99.90;;;;;;5052249;28;20212;-78
2022/07/13 03:39:51;;;;;;;3.67;2.23;;;12.10;99.90;;;;;;5051413;28;20576;-76
2022/07/13 03:42:19;;;;;;;6.33;2.40;;;12.10;99.90;;;;;;5051489;28;20239;-77
2022/07/13 03:44:47;;;;;;;2.23;2.00;;;12.10;99.90;;;;;;5051668;28;20271;-77
2022/07/13 03:47:15;;;;;;;5.43;2.00;;;12.10;99.90;;;;;;5051775;28;20287;-77
2022/07/13 03:49:44;;;;;;;3.07;2.10;;;12.10;99.90;;;;;;5051228;28;20212;-81
2022/07/13 03:52:12;;;;;;;2.40;2.20;;;12.20;99.90;;;;;;5062092;28;20234;-79
2022/07/13 03:54:41;;;;;;;3.03;2.17;;;12.20;99.90;;;;;;5068262;28;20227;-80
2022/07/13 03:57:10;;;;;;;2.17;1.90;;;12.20;99.90;;;;;;5067063;28;20215;-81
2022/07/13 03:59:38;;;;;;;3.80;2.30;;;12.20;99.90;;;;;;5070652;28;20230;-76
2022/07/13 04:02:13;;;;;;;5.07;2.30;;;12.20;99.90;;;;;;5070695;28;20219;-80
2022/07/13 04:04:41;;;;;;;5.90;2.30;;;12.20;99.90;;;;;;5071704;28;20227;-76
2022/07/13 04:07:09;;;;;;;2.23;1.90;;;12.20;99.90;;;;;;5060141;28;20214;-78
2022/07/13 04:09:37;;;;;;;4.23;2.10;;;12.30;99.90;;;;;;5051514;28;20314;-77
2022/07/13 04:12:07;;;;;;;2.97;2.20;;;12.30;99.90;;;;;;5051633;28;20240;-78
2022/07/13 04:14:36;;;;;;;4.40;2.30;;;12.40;99.90;;;;;;5051705;28;20849;-80
2022/07/13 04:17:04;;;;;;;3.87;2.47;;;12.40;99.90;;;;;;5061317;28;20288;-79
2022/07/13 04:19:32;;;;;;;2.60;2.10;;;12.40;99.90;;;;;;5064458;28;20208;-77
2022/07/13 04:22:00;;;;;;;4.47;2.07;;;12.50;99.90;;;;;;5055196;28;20236;-78
2022/07/13 04:24:28;;;;;;;5.00;2.37;;;12.50;99.90;;;;;;5055666;28;20666;-76
2022/07/13 04:26:57;;;;;;;4.30;2.10;;;12.50;99.90;;;;;;5055162;28;20709;-75
2022/07/13 04:29:26;;;;;;;4.50;2.10;;;12.60;99.90;;;;;;5075289;28;20260;-77
2022/07/13 04:31:54;;;;;;;4.27;2.40;;;12.60;99.90;;;;;;5061147;28;20287;-77
2022/07/13 04:34:22;;;;;;;4.73;2.13;;;12.70;99.90;;;;;;5055862;28;20602;-77
2022/07/13 04:36:51;;;;;;;2.63;2.20;;;12.70;99.90;;;;;;5055601;28;20280;-79
2022/07/13 04:39:20;;;;;;;5.07;2.10;;;12.80;99.90;;;;;;5055567;28;20239;-76
2022/07/13 04:41:48;;;;;;;4.37;2.30;;;12.80;99.90;;;;;;5070490;28;20302;-80
2022/07/13 04:44:16;;;;;;;2.80;2.07;;;12.90;99.90;;;;;;5075926;28;20289;-76
2022/07/13 04:46:45;;;;;;;4.37;2.10;;;12.90;99.90;;;;;;5075778;28;20215;-77
2022/07/13 04:49:15;;;;;;;5.47;2.20;;;12.90;99.90;;;;;;5076707;28;20242;-76
2022/07/13 04:51:43;;;;;;;3.40;1.90;;;13.00;99.90;;;;;;5059230;28;20654;-79
2022/07/13 04:54:11;;;;;;;2.70;2.00;;;13.10;99.90;;;;;;5055199;28;20248;-75
2022/07/13 04:56:39;;;;;;;4.43;2.00;;;13.10;99.90;;;;;;5059875;28;20208;-75
2022/07/13 04:59:07;;;;;;;4.17;1.90;;;13.20;99.90;;;;;;5070123;28;20672;-75
2022/07/13 05:01:36;;;;;;;4.90;2.10;;;13.30;99.90;;;;;;5079667;28;20235;-77
2022/07/13 05:04:06;;;;;;;3.03;1.80;;;13.40;99.90;;;;;;5059231;28;20278;-79
2022/07/13 05:06:34;;;;;;;4.60;2.00;;;13.40;99.90;;;;;;5068247;28;20304;-77
2022/07/13 05:09:02;;;;;;;5.20;2.10;;;13.60;99.90;;;;;;5072096;28;20208;-75
2022/07/13 05:11:30;;;;;;;3.17;2.07;;;13.70;99.90;;;;;;5073379;28;20331;-76
2022/07/13 05:13:59;;;;;;;5.90;1.80;;;13.80;99.90;;;;;;5074849;28;20652;-76
2022/07/13 05:16:27;;;;;;;5.13;2.00;;;13.90;99.90;;;;;;5075566;28;20295;-77
2022/07/13 05:18:57;;;;;;;4.33;2.13;;;13.90;99.90;;;;;;5075064;28;20211;-80
2022/07/13 05:21:26;;;;;;;2.60;1.87;;;14.00;99.90;;;;;;5074658;28;20290;-74
2022/07/13 05:23:55;;;;;;;3.80;2.00;;;14.10;99.90;;;;;;5075257;28;20262;-77
2022/07/13 05:26:23;;;;;;;2.17;1.80;;;14.20;99.90;;;;;;5076656;28;20756;-78
2022/07/13 05:28:51;;;;;;;7.93;2.07;;;14.30;99.90;;;;;;5075146;28;20213;-75
2022/07/13 05:31:19;;;;;;;3.03;1.77;;;14.40;99.90;;;;;;5075353;28;20310;-79
2022/07/13 05:33:47;;;;;;;4.77;1.87;;;14.50;99.90;;;;;;5074657;28;20289;-78
2022/07/13 05:36:15;;;;;;;4.37;1.90;;;14.60;99.90;;;;;;5075064;28;20263;-76
2022/07/13 05:38:45;;;;;;;4.40;1.90;;;14.70;99.90;;;;;;5074033;28;20222;-77
2022/07/13 05:41:13;;;;;;;6.40;1.87;;;14.80;99.90;;;;;;5074085;28;20680;-75
2022/07/13 05:43:42;;;;;;;4.60;1.60;;;14.90;99.90;;;;;;5075081;28;20283;-73
2022/07/13 05:46:10;;;;;;;4.57;1.90;;;15.10;99.90;;;;;;5075769;28;20215;-78
2022/07/13 05:48:38;;;;;;;3.07;1.97;;;15.30;99.90;;;;;;5074386;28;20210;-76
2022/07/13 05:51:06;;;;;;;3.03;1.80;;;15.40;99.90;;;;;;5074017;28;20265;-77
2022/07/13 05:53:56;;;;;;;4.17;1.70;;;15.60;99.90;;;;;;5074638;28;20216;-75
2022/07/13 05:56:24;;;;;;;4.60;1.60;;;16.00;99.90;;;;;;5074908;28;20231;-78
2022/07/13 05:58:52;;;;;;;5.67;1.80;;;16.70;99.90;;;;;;5073555;28;20218;-76
2022/07/13 06:01:20;;;;;;;6.87;1.90;;;17.60;99.90;;;;;;5073971;28;20215;-76
2022/07/13 06:03:49;;;;;;;5.17;2.00;;;19.00;99.90;;;;;;5073671;28;20682;-77
2022/07/13 06:06:17;;;;;;;3.10;1.73;;;20.70;99.90;;;;;;5073430;28;20269;-75
2022/07/13 06:08:45;;;;;;;6.57;1.50;;;22.20;99.90;;;;;;5073661;28;20295;-77
2022/07/13 06:11:15;;;;;;;2.40;1.27;;;23.30;99.90;;;;;;5073004;28;20736;-76
2022/07/13 06:13:43;;;;;;;3.63;1.27;;;24.40;99.90;;;;;;5073666;28;20212;-76
2022/07/13 06:16:11;;;;;;;3.80;1.23;;;25.10;99.90;;;;;;5073417;28;20290;-78
2022/07/13 06:18:39;;;;;;;2.83;1.30;;;25.40;99.90;;;;;;5073492;28;20299;-76
2022/07/13 06:21:08;;;;;;;2.10;1.30;;;26.20;99.90;;;;;;5072795;28;20290;-76
2022/07/13 06:23:36;;;;;;;2.75;1.10;;;26.20;99.90;;;;;;5072942;28;20241;-76
2022/07/13 06:26:04;;;;;;;2.72;1.25;;;27.00;99.90;;;;;;5072754;28;20662;-78
2022/07/13 06:28:35;;;;;;;3.17;1.33;;;27.50;98.40;;;;;;5072760;28;20299;-78
2022/07/13 06:31:03;;;;;;;4.93;1.10;;;28.60;96.40;;;;;;5072591;28;20211;-76
2022/07/13 06:33:31;;;;;;;5.40;1.20;;;28.50;95.60;;;;;;5073037;28;20269;-80
2022/07/13 06:35:59;;;;;;;3.33;1.10;;;29.10;94.40;;;;;;5073001;28;20238;-75
2022/07/13 06:38:27;;;;;;;2.85;1.20;;;29.10;93.50;;;;;;5073082;28;20247;-77
2022/07/13 06:40:56;;;;;;;5.10;1.27;;;29.30;93.20;;;;;;5072617;28;20211;-76
2022/07/13 06:43:25;;;;;;;2.33;1.20;;;30.00;93.50;;;;;;5072647;28;20623;-76
2022/07/13 06:45:54;;;;;;;6.22;1.40;;;30.40;91.70;;;;;;5072916;28;20227;-79
2022/07/13 06:48:22;;;;;;;3.85;1.30;;;30.50;90.60;;;;;;5072665;28;20203;-76
2022/07/13 06:50:50;;;;;;;3.85;1.10;;;30.90;90.30;;;;;;5062682;28;20231;-77
2022/07/13 06:53:19;;;;;;;4.85;1.40;;;32.20;88.40;;;;;;5068413;28;20573;-78
2022/07/13 06:55:48;;;;;;;3.90;1.10;;;32.60;84.30;;;;;;5071342;28;20224;-77
2022/07/13 06:58:16;;;;;;;7.60;1.30;;;33.00;82.90;;;;;;5072054;28;20247;-77
2022/07/13 07:00:44;;;;;;;4.25;1.10;;;33.70;80.30;;;;;;5071927;28;20235;-76
2022/07/13 07:03:14;;;;;;;2.58;1.08;;;34.00;77.70;;;;;;5072387;28;20235;-80
2022/07/13 07:05:42;;;;;;;2.72;1.40;;;34.20;75.00;;;;;;5072165;28;20224;-76
2022/07/13 07:08:10;;;;;;;2.47;1.13;;;33.00;78.60;;;;;;5066771;28;20243;-78
2022/07/13 07:10:38;;;;;;;2.47;1.25;;;34.10;75.90;;;;;;5051443;28;20254;-76
2022/07/13 07:13:07;;;;;;;2.10;1.20;;;34.30;73.40;;;;;;5051897;28;20231;-77
2022/07/13 07:15:35;;;;;;;2.72;1.00;;;34.60;72.70;;;;;;5052083;28;20204;-77
2022/07/13 07:18:04;;;;;;;1.70;1.00;;;35.60;70.40;;;;;;5051453;28;20211;-77
2022/07/13 07:20:38;;;;;;;2.05;1.10;;;36.10;69.50;;;;;;5051751;28;20212;-80
2022/07/13 07:23:08;;;;;;;3.40;1.10;;;36.50;65.40;;;;;;5051781;28;20238;-78
2022/07/13 07:25:36;;;;;;;2.80;1.00;;;36.70;65.20;;;;;;5051550;28;20253;-77
2022/07/13 07:28:06;;;;;;;1.98;1.02;;;36.40;63.00;;;;;;5051922;28;20291;-79
2022/07/13 07:30:35;;;;;;;5.20;1.13;;;36.30;62.60;;;;;;5051427;28;20223;-78
2022/07/13 07:33:03;;;;;;;3.40;1.25;;;35.80;63.40;;;;;;5051452;28;20214;-78
2022/07/13 07:35:32;;;;;;;4.75;1.40;;;35.50;64.90;;;;;;5051639;28;20208;-77
2022/07/13 07:38:01;;;;;;;6.93;1.45;;;35.90;64.50;;;;;;5051741;28;20243;-79
2022/07/13 07:40:31;;;;;;;2.22;1.17;;;36.40;62.20;;;;;;5051670;28;20216;-78
2022/07/13 07:42:59;;;;;;;4.80;1.30;;;35.70;62.80;;;;;;5051541;28;20788;-79
2022/07/13 07:45:27;;;;;;;7.55;1.45;;;35.60;62.60;;;;;;5051582;28;20263;-78
2022/07/13 07:47:56;;;;;;;3.60;1.38;;;36.30;61.80;;;;;;5051815;28;20287;-79
2022/07/13 07:50:24;;;;;;;4.75;1.30;;;36.20;63.70;;;;;;5051036;28;20255;-78
2022/07/13 07:52:52;;;;;;;4.75;1.52;;;36.50;62.20;;;;;;5052429;28;20298;-77
2022/07/13 07:55:24;;;;;;;2.28;1.27;;;35.80;62.20;;;;;;5070855;28;20208;-78
2022/07/13 07:57:52;;;;;;;1.65;1.17;;;35.90;62.60;;;;;;5071972;28;20204;-78
2022/07/13 08:00:21;;;;;;;2.35;1.20;;;36.00;63.30;;;;;;5071390;28;20207;-79
2022/07/13 08:02:49;;;;;;;3.47;1.20;;;35.90;61.40;;;;;;5071307;28;20242;-77
2022/07/13 08:05:21;;;;;;;5.32;1.30;;;36.00;60.80;;;;;;5071913;28;20220;-77
2022/07/13 08:07:49;;;;;;;4.00;1.20;;;35.00;60.30;;;;;;5071307;28;20251;-78
2022/07/13 08:10:17;;;;;;;7.22;1.45;;;35.40;59.70;;;;;;5071292;28;20211;-78
2022/07/13 08:13:00;;;;;;;2.67;1.23;;;35.70;58.90;;;;;;5071306;28;20233;-76
2022/07/13 08:15:29;;;;;;;3.55;1.08;;;35.40;60.00;;;;;;5071461;28;20294;-78
2022/07/13 08:17:57;;;;;;;3.30;1.10;;;34.30;58.20;;;;;;5071261;28;20204;-75
2022/07/13 08:20:26;;;;;;;1.23;1.00;;;33.40;59.90;;;;;;5071218;28;20246;-76
2022/07/13 08:22:54;;;;;;;3.92;1.00;;;32.90;66.30;;;;;;5071419;28;20231;-77
2022/07/13 08:25:23;;;;;;;1.30;0.88;;;32.20;64.40;;;;;;5071451;28;20227;-76
2022/07/13 08:27:52;;;;;;;1.10;0.80;;;31.90;67.90;;;;;;5071556;28;20295;-77
2022/07/13 08:30:21;;;;;;;1.48;0.80;;;31.50;60.00;;;;;;5071457;28;20624;-77
2022/07/13 08:32:50;;;;;;;1.00;0.77;;;31.50;59.60;;;;;;5071353;28;20775;-79
2022/07/13 08:40:49;;;;;;;1.15;0.85;;;30.40;65.70;;;;;;5071153;28;20337;-76
2022/07/13 08:43:18;;;;;;;2.33;0.90;;;30.00;63.20;;;;;;5071071;28;20202;-78
2022/07/13 08:45:47;;;;;;;1.65;0.93;;;29.50;66.00;;;;;;5071261;28;20644;-78
2022/07/13 08:48:19;;;;;;;0.57;0.57;;;29.30;65.30;;;;;;5070957;28;20247;-76
2022/07/13 08:50:48;;;;;;;1.48;1.00;;;29.00;66.10;;;;;;5071312;28;20188;-76
2022/07/13 08:53:17;;;;;;;1.77;0.80;;;28.70;76.70;;;;;;5070779;28;20204;-76
2022/07/13 08:55:45;;;;;;;1.67;0.98;;;28.00;75.00;;;;;;5071148;28;20253;-80
2022/07/13 08:58:18;;;;;;;1.75;0.60;;;27.70;78.90;;;;;;5071033;28;20211;-77
2022/07/13 09:00:48;;;;;;;1.33;0.80;;;28.00;77.20;;;;;;5070554;28;20275;-76
2022/07/13 09:03:16;;;;;;;0.82;0.73;;;29.00;76.80;;;;;;5070695;28;20668;-76
2022/07/13 09:05:44;;;;;;;1.55;0.95;;;29.90;68.50;;;;;;5071159;28;20318;-78
2022/07/13 09:08:13;;;;;;;2.30;0.80;;;31.00;66.50;;;;;;5073321;28;20279;-78
2022/07/13 09:10:56;;;;;;;1.42;0.90;;;32.40;65.30;;;;;;5073950;28;20207;-77
2022/07/13 09:13:41;;;;;;;1.95;0.90;;;32.80;66.10;;;;;;5074200;28;20249;-79
2022/07/13 09:16:16;;;;;;;0.68;0.68;;;34.10;57.40;;;;;;5074464;28;20188;-78
2022/07/13 09:18:45;;;;;;;1.95;0.90;;;34.40;58.00;;;;;;5074683;28;20611;-78
2022/07/13 09:21:13;;;;;;;0.98;0.80;;;34.20;58.60;;;;;;5074425;28;20207;-78
2022/07/13 09:23:43;;;;;;;1.42;0.80;;;33.70;58.30;;;;;;5074771;28;20238;-77
2022/07/13 09:26:11;;;;;;;1.30;0.80;;;32.90;58.20;;;;;;5076270;28;20247;-76
2022/07/13 09:28:44;;;;;;;0.95;0.90;;;32.40;60.70;;;;;;5074185;28;20659;-76
2022/07/13 09:31:14;;;;;;;2.03;1.00;;;32.10;61.40;;;;;;5074626;28;20218;-78
2022/07/13 09:33:44;;;;;;;2.38;0.80;;;32.50;57.30;;;;;;5073888;28;20317;-76
2022/07/13 09:36:14;;;;;;;2.70;1.00;;;32.50;60.50;;;;;;5074003;28;20212;-76
2022/07/13 09:38:43;;;;;;;2.05;1.00;;;32.90;57.30;;;;;;5074027;28;20258;-78
2022/07/13 09:41:20;;;;;;;6.30;1.10;;;33.10;62.50;;;;;;5073805;28;20345;-76
2022/07/13 09:46:57;;;;;;;1.23;0.75;;;32.30;59.90;;;;;;5074666;28;20212;-76
2022/07/13 09:49:31;;;;;;;1.52;0.90;;;32.40;58.10;;;;;;5073473;28;20196;-75
2022/07/13 09:52:00;;;;;;;2.35;0.90;;;32.00;58.10;;;;;;5074441;28;20262;-77
2022/07/13 09:54:30;;;;;;;2.20;0.88;;;32.00;58.10;;;;;;5061719;28;20204;-78
2022/07/13 09:57:00;;;;;;;3.60;0.88;;;32.50;59.70;;;;;;5071000;28;20241;-78
2022/07/13 09:59:30;;;;;;;4.28;0.90;;;32.90;57.30;;;;;;5079121;28;20262;-78
2022/07/13 10:01:59;;;;;;;5.47;1.20;;;33.80;56.10;;;;;;5077053;28;20212;-78
2022/07/13 10:04:28;;;;;;;0.85;0.82;;;33.60;57.90;;;;;;5075638;28;20211;-77
2022/07/13 10:07:16;;;;;;;1.60;0.98;;;33.20;56.10;;;;;;5073949;28;20620;-75
2022/07/13 10:09:44;;;;;;;1.08;0.70;;;33.00;59.20;;;;;;5073660;28;20207;-78
2022/07/13 10:12:13;;;;;;;2.38;1.00;;;32.50;56.60;;;;;;5064816;28;20228;-77
2022/07/13 10:14:41;;;;;;;1.90;0.90;;;32.60;59.80;;;;;;5053238;28;20204;-77
2022/07/13 10:17:20;;;;;;;2.70;1.00;;;32.50;58.60;;;;;;5053635;28;20223;-77
2022/07/13 10:19:57;;;;;;;0.95;0.82;;;32.20;57.40;;;;;;5053810;28;20230;-75
2022/07/13 10:22:29;;;;;;;2.70;0.90;;;32.40;57.30;;;;;;5052987;28;20250;-76
2022/07/13 10:24:59;;;;;;;1.48;0.70;;;31.80;55.70;;;;;;5053841;28;20285;-74
2022/07/13 10:27:29;;;;;;;0.77;0.77;;;32.10;53.80;;;;;;5057566;28;20228;-75
2022/07/13 10:29:59;;;;;;;1.17;0.80;;;32.80;55.90;;;;;;5054909;28;20247;-76
2022/07/13 10:32:31;;;;;;;3.05;0.80;;;32.20;57.00;;;;;;5061742;28;20208;-80
2022/07/13 10:35:00;;;;;;;2.80;0.75;;;33.00;56.60;;;;;;5063653;28;20197;-78
2022/07/13 10:37:50;;;;;;;2.35;0.80;;;33.50;55.70;;;;;;5055967;28;20228;-75
2022/07/13 10:40:20;;;;;;;3.65;0.90;;;33.60;53.10;;;;;;5053506;28;20300;-76
2022/07/13 10:43:10;;;;;;;1.88;0.75;;;32.90;52.70;;;;;;5055153;28;20270;-77
2022/07/13 10:45:41;;;;;;;3.30;0.60;;;32.60;53.40;;;;;;5054771;28;20253;-77
2022/07/13 10:48:48;;;;;;;1.27;0.73;;;32.00;54.40;;;;;;5055068;28;20228;-79
2022/07/13 10:51:22;;;;;;;0.90;0.73;;;32.00;54.20;;;;;;5064205;28;20664;-76
2022/07/13 10:54:05;;;;;;;1.45;0.80;;;31.80;55.20;;;;;;5072394;28;20203;-77
2022/07/13 10:56:34;;;;;;;1.10;0.70;;;30.90;56.80;;;;;;5070987;28;20218;-77
2022/07/13 10:59:02;;;;;;;0.80;0.80;;;30.50;60.70;;;;;;5072299;28;20221;-79
2022/07/13 11:01:48;;;;;;;2.08;0.80;;;30.80;60.00;;;;;;5072557;28;20318;-78
2022/07/13 11:04:20;;;;;;;0.95;0.60;;;30.50;61.00;;;;;;5075198;28;20712;-76
2022/07/13 11:07:08;;;;;;;1.23;0.80;;;30.40;65.10;;;;;;5075906;28;20675;-75
2022/07/13 11:09:38;;;;;;;1.15;0.95;;;30.40;54.90;;;;;;5074872;28;20212;-76
2022/07/13 11:12:21;;;;;;;3.15;1.10;;;30.50;62.10;;;;;;5073511;28;20228;-76
2022/07/13 11:14:53;;;;;;;2.25;0.77;;;30.50;54.40;;;;;;5072810;28;20300;-76
2022/07/13 11:17:24;;;;;;;1.95;0.63;;;30.00;53.80;;;;;;5072702;28;20589;-76
2022/07/13 11:19:57;;;;;;;1.70;0.70;;;30.40;64.40;;;;;;5072458;28;20625;-74
2022/07/13 11:22:26;;;;;;;0.73;0.73;;;30.40;55.90;;;;;;5072702;28;20196;-75
2022/07/13 11:25:14;;;;;;;1.90;0.80;;;30.40;54.30;;;;;;5073457;28;20208;-76
2022/07/13 11:28:03;;;;;;;1.20;0.60;;;29.70;54.10;;;;;;5072573;28;20246;-79
2022/07/13 11:30:41;;;;;;;2.28;0.77;;;29.80;52.90;;;;;;5072205;28;20656;-76
2022/07/13 11:33:11;;;;;;;0.70;0.70;;;30.20;52.90;;;;;;5071909;28;20231;-75
2022/07/13 11:35:47;;;;;;;0.63;0.63;;;31.00;54.20;;;;;;5065673;28;20629;-76
2022/07/13 11:38:17;;;;;;;1.77;1.00;;;31.50;51.20;;;;;;5063114;28;20226;-76
2022/07/13 11:40:45;;;;;;;4.07;0.90;;;31.90;51.30;;;;;;5072471;28;20261;-81
2022/07/13 11:43:14;;;;;;;0.60;0.60;;;32.00;54.60;;;;;;5058465;28;20598;-76
2022/07/13 11:45:43;;;;;;;0.70;0.70;;;32.00;54.40;;;;;;5054006;28;20218;-77
2022/07/13 11:48:16;;;;;;;1.63;0.70;;;32.00;49.00;;;;;;5051899;28;20730;-78
2022/07/13 11:50:48;;;;;;;0.63;0.63;;;31.30;49.00;;;;;;5070166;28;20219;-75
2022/07/13 11:53:24;;;;;;;1.58;0.50;;;31.30;52.20;;;;;;5071364;28;20212;-76
2022/07/13 11:55:54;;;;;;;1.75;0.57;;;31.50;51.90;;;;;;5054485;28;20200;-74
2022/07/13 11:58:28;;;;;;;0.70;0.60;;;31.20;54.40;;;;;;5056022;28;20208;-75
2022/07/13 12:00:57;;;;;;;1.17;0.70;;;31.40;55.10;;;;;;5054391;28;20290;-76
2022/07/13 12:03:30;;;;;;;1.85;0.63;;;31.30;51.30;;;;;;5051342;28;20680;-76
2022/07/13 12:06:05;;;;;;;0.70;0.70;;;30.80;52.60;;;;;;5053267;28;20192;-78
2022/07/13 12:08:35;;;;;;;0.95;0.50;;;31.20;54.30;;;;;;5055497;28;20364;-75
2022/07/13 12:11:05;;;;;;;1.88;0.60;;;31.60;51.20;;;;;;5054241;28;20281;-74
2022/07/13 12:13:36;;;;;;;1.58;0.90;;;31.40;56.00;;;;;;5051674;28;20246;-76
2022/07/13 12:16:05;;;;;;;1.85;0.88;;;30.90;59.10;;;;;;5054679;28;20262;-77
2022/07/13 12:18:58;;;;;;;2.38;0.80;;;31.30;55.00;;;;;;5052184;28;20238;-76
2022/07/13 12:21:28;;;;;;;0.70;0.70;;;31.10;52.80;;;;;;5052076;28;20196;-76
2022/07/13 12:23:58;;;;;;;2.45;0.95;;;30.80;52.90;;;;;;5052192;28;20258;-77
2022/07/13 12:26:27;;;;;;;1.67;0.60;;;30.40;53.70;;;;;;5053635;28;20226;-78
2022/07/13 12:28:56;;;;;;;1.23;0.67;;;30.10;55.10;;;;;;5053641;28;20228;-78
2022/07/13 12:31:26;;;;;;;1.43;0.53;;;30.20;57.90;;;;;;5060734;28;20220;-74
2022/07/13 12:33:55;;;;;;;0.60;0.60;;;30.40;55.80;;;;;;5057352;28;20196;-75
2022/07/13 12:36:25;;;;;;;2.23;0.70;;;30.00;61.50;;;;;;5052673;28;20239;-76
2022/07/13 12:39:00;;;;;;;0.67;0.50;;;30.00;53.10;;;;;;5057395;28;20207;-75
2022/07/13 12:41:30;;;;;;;1.37;0.80;;;30.50;52.40;;;;;;5058937;28;20219;-75
2022/07/13 12:44:00;;;;;;;1.87;0.70;;;30.40;55.00;;;;;;5057819;28;20653;-76
2022/07/13 12:46:52;;;;;;;0.60;0.60;;;30.40;55.40;;;;;;5063793;28;20276;-76
2022/07/13 12:49:27;;;;;;;1.50;0.70;;;30.20;56.70;;;;;;5076708;28;20647;-73
2022/07/13 12:51:56;;;;;;;0.50;0.50;;;30.00;54.00;;;;;;5079031;28;20196;-77
2022/07/13 12:54:46;;;;;;;2.20;0.80;;;29.80;55.60;;;;;;5078307;28;20203;-74
2022/07/13 12:57:19;;;;;;;2.23;0.60;;;29.60;57.90;;;;;;5076523;28;20265;-77
2022/07/13 13:00:01;;;;;;;0.87;0.87;;;29.90;55.70;;;;;;5074696;28;20211;-77
2022/07/13 13:02:29;;;;;;;1.77;0.70;;;29.40;53.90;;;;;;5076298;28;20274;-74
2022/07/13 13:04:58;;;;;;;1.53;0.70;;;29.80;55.80;;;;;;5077545;28;20680;-74
2022/07/13 13:07:27;;;;;;;0.97;0.80;;;30.00;55.70;;;;;;5076267;28;20207;-79
2022/07/13 13:09:56;;;;;;;2.80;0.70;;;30.40;56.60;;;;;;5079440;28;20235;-74
2022/07/13 13:12:25;;;;;;;1.47;0.80;;;30.80;55.60;;;;;;5078752;28;20273;-77